METAR Reports From Nearby Airports

 

KLUD - Decatur, Texas, USA
Distance from Wildwood: ESE 5mi, 8km
Updated: Jan 24, 2022 5:35am
Clear
Clear
 Wind from WSW
Wind: WSW 6 mph , 9 km/h
Temperature: 43°F , 6°C
Wind Chill: 39°F , 4°C
Dew Point: 34°F , 1°C
Humidity: 71%
Barometer: 29.93 inHg , 1013.5 hPa
Clouds: Clear
Visibility: 10 miles , 16 km
2022/01/24 11:35 KLUD 241135Z AUTO 24005KT 10SM CLR 06/01 A2993 RMK AO2 T00550010
KXBP - Bridgeport, Texas, USA
Distance from Wildwood: WSW 11mi, 18km
Updated: Jan 24, 2022 5:30am
Clear
Clear
 Wind from SW
Wind: SW 5 mph , 7 km/h
Temperature: 41°F , 5°C
Wind Chill: 38°F , 3°C
Dew Point: 34°F , 1°C
Humidity: 76%
Barometer: 29.95 inHg , 1014.2 hPa
Clouds: Clear
Visibility: 10 miles , 16 km
2022/01/24 11:30 KXBP 241130Z AUTO 22004KT 10SM CLR 05/01 A2995 RMK AO2 T00480011
 
K0F2 - Bowie, Texas, USA
Distance from Wildwood: NNW 24mi, 39km
Updated: Jan 24, 2022 5:35am
Clear
Clear
 Wind from calm
Wind: Calm
Temperature: 36°F , 2°C
Dew Point: 32°F , 0°C
Humidity: 87%
Barometer: 29.92 inHg , 1013.2 hPa
Clouds: Clear
Visibility: 10 miles , 16 km
2022/01/24 11:35 K0F2 241135Z AUTO 00000KT 10SM CLR 02/00 A2992 RMK AO2 T00211003
KDTO - Denton, Texas, USA
Distance from Wildwood: E 27mi, 44km
Updated: Jan 24, 2022 5:53am
Overcast
Overcast
 Wind from SW
Wind: SW 3 mph , 6 km/h
Temperature: 43°F , 6°C
Dew Point: 36°F , 2°C
Humidity: 76%
Barometer: 29.93 inHg , 1013.5 hPa
Clouds: Overcast
Visibility: 10 miles , 16 km
Cloud details: Overcast 4600 ft
2022/01/24 11:53 KDTO 241153Z 23003KT 10SM OVC046 06/02 A2993 RMK AO2 SLP134 T00560022 10056 21028 56017 $
 
KAFW - Ft Worth/Allianc, Texas, USA
Distance from Wildwood: SE 29mi, 46km
Updated: Jan 24, 2022 5:53am
Partly Cloudy
Partly Cloudy
 Wind from SW
Wind: SW 6 mph , 9 km/h
Temperature: 45°F , 7°C
Wind Chill: 42°F , 6°C
Dew Point: 36°F , 2°C
Humidity: 71%
Barometer: 29.93 inHg , 1013.5 hPa
Clouds: Partly Cloudy
Visibility: 10 miles , 16 km
Cloud details: Partly Cloudy 4300 ft
2022/01/24 11:53 KAFW 241153Z 22005KT 10SM SCT043 07/02 A2993 RMK AO2 SLP135 T00720022 10100 20044 56014
KFTW - Fort Worth, Texas, USA
Distance from Wildwood: SSE 34mi, 55km
Updated: Jan 24, 2022 5:53am
Overcast
Overcast
 Wind from W
Wind: W 3 mph , 6 km/h
Temperature: 46°F , 8°C
Dew Point: 37°F , 3°C
Humidity: 71%
Barometer: 29.93 inHg , 1013.5 hPa
Clouds: Overcast
Visibility: 10 miles , 16 km
Cloud details: Overcast 4000 ft
2022/01/24 11:53 KFTW 241153Z 28003KT 10SM OVC040 08/03 A2993 RMK AO2 SLP134 T00780028 10083 20056 56014 $
 
KNFW - Fort Worth Nas, Texas, USA
Distance from Wildwood: SSE 36mi, 58km
Updated: Jan 24, 2022 5:52am
Overcast
Overcast
 Wind from WSW
Wind: WSW 7 mph , 11 km/h
Temperature: 45°F , 7°C
Wind Chill: 41°F , 5°C
Dew Point: 37°F , 3°C
Humidity: 76%
Barometer: 29.95 inHg , 1014.2 hPa
Clouds: Overcast
Visibility: 10 miles , 16 km
Cloud details: Overcast 4100 ft
2022/01/24 11:52 KNFW 241152Z 25006KT 10SM OVC041 07/03 A2995 RMK SLP124 T00720028 57017
KGLE - Gainesville, Texas, USA
Distance from Wildwood: NE 38mi, 61km
Updated: Jan 24, 2022 5:35am
Clear
Clear
 Wind from W
Wind: W 5 mph , 7 km/h
Temperature: 41°F , 5°C
Wind Chill: 38°F , 3°C
Dew Point: 32°F , 0°C
Humidity: 70%
Barometer: 29.94 inHg , 1013.9 hPa
Clouds: Clear
Visibility: 10 miles , 16 km
2022/01/24 11:35 KGLE 241135Z AUTO 27004KT 10SM CLR 05/00 A2994 RMK AO2 T00490003
 
KMWL - Mineral Wells, Texas, USA
Distance from Wildwood: SW 41mi, 65km
Updated: Jan 24, 2022 5:53am
Clear
Clear
 Wind from calm
Wind: Calm
Temperature: 37°F , 3°C
Dew Point: 32°F , 0°C
Humidity: 81%
Barometer: 29.92 inHg , 1013.2 hPa
Clouds: Clear
Visibility: 10 miles , 16 km
2022/01/24 11:53 KMWL 241153Z AUTO 00000KT 10SM CLR 03/00 A2992 RMK AO2 SLP130 T00330000 10072 20022 56016
KDFW - Dallas/Ft Worth, Texas, USA
Distance from Wildwood: ESE 45mi, 73km
Updated: Jan 24, 2022 5:53am
Overcast
Overcast
 Wind from SSW
Wind: SSW 5 mph , 7 km/h
Temperature: 46°F , 8°C
Wind Chill: 44°F , 7°C
Dew Point: 36°F , 2°C
Humidity: 66%
Barometer: 29.92 inHg , 1013.2 hPa
Clouds: Overcast
Visibility: 10 miles , 16 km
Cloud details: Overcast 4300 ft
2022/01/24 11:53 KDFW 241153Z 21004KT 10SM OVC043 08/02 A2992 RMK AO2 SLP129 T00830022 10089 20039 56014 $